sensor_id;sensor_type;location;lat;lon;timestamp;temperature;humidity
37642;DHT22;23486;51.956;5.888;2023-02-27T00:00:11;1.20;99.90
37642;DHT22;23486;51.956;5.888;2023-02-27T00:02:45;1.20;99.90
37642;DHT22;23486;51.956;5.888;2023-02-27T00:05:12;1.20;99.90
37642;DHT22;23486;51.956;5.888;2023-02-27T00:07:38;1.20;99.90
37642;DHT22;23486;51.956;5.888;2023-02-27T00:10:05;1.20;99.90
37642;DHT22;23486;51.956;5.888;2023-02-27T00:12:31;1.20;99.90
37642;DHT22;23486;51.956;5.888;2023-02-27T00:15:11;1.10;99.90
37642;DHT22;23486;51.956;5.888;2023-02-27T00:17:37;1.10;99.90
37642;DHT22;23486;51.956;5.888;2023-02-27T00:20:04;1.10;99.90
37642;DHT22;23486;51.956;5.888;2023-02-27T00:22:30;1.00;99.90
37642;DHT22;23486;51.956;5.888;2023-02-27T00:24:56;1.00;99.90
37642;DHT22;23486;51.956;5.888;2023-02-27T00:27:22;1.00;99.90
37642;DHT22;23486;51.956;5.888;2023-02-27T00:29:47;1.00;99.90
37642;DHT22;23486;51.956;5.888;2023-02-27T00:32:13;1.00;99.90
37642;DHT22;23486;51.956;5.888;2023-02-27T00:34:40;0.90;99.90
37642;DHT22;23486;51.956;5.888;2023-02-27T00:37:06;0.90;99.90
37642;DHT22;23486;51.956;5.888;2023-02-27T00:39:32;0.90;99.90
37642;DHT22;23486;51.956;5.888;2023-02-27T00:42:01;0.90;99.90
37642;DHT22;23486;51.956;5.888;2023-02-27T00:44:26;0.90;99.90
37642;DHT22;23486;51.956;5.888;2023-02-27T00:46:52;0.80;99.90
37642;DHT22;23486;51.956;5.888;2023-02-27T00:49:17;0.80;99.90
37642;DHT22;23486;51.956;5.888;2023-02-27T00:51:44;0.80;99.90
37642;DHT22;23486;51.956;5.888;2023-02-27T00:54:12;0.80;99.90
37642;DHT22;23486;51.956;5.888;2023-02-27T00:56:38;0.80;99.90
37642;DHT22;23486;51.956;5.888;2023-02-27T00:59:05;0.70;99.90
37642;DHT22;23486;51.956;5.888;2023-02-27T01:01:30;0.60;99.90
37642;DHT22;23486;51.956;5.888;2023-02-27T01:03:56;0.60;99.90
37642;DHT22;23486;51.956;5.888;2023-02-27T01:06:22;0.60;99.90
37642;DHT22;23486;51.956;5.888;2023-02-27T01:08:47;0.50;99.90
37642;DHT22;23486;51.956;5.888;2023-02-27T01:11:13;0.50;99.90
37642;DHT22;23486;51.956;5.888;2023-02-27T01:13:38;0.50;99.90
37642;DHT22;23486;51.956;5.888;2023-02-27T01:16:04;0.50;99.90
37642;DHT22;23486;51.956;5.888;2023-02-27T01:18:30;0.40;99.90
37642;DHT22;23486;51.956;5.888;2023-02-27T01:20:56;0.40;99.90
37642;DHT22;23486;51.956;5.888;2023-02-27T01:23:22;0.30;99.90
37642;DHT22;23486;51.956;5.888;2023-02-27T01:25:48;0.20;99.90
37642;DHT22;23486;51.956;5.888;2023-02-27T01:28:14;0.20;99.90
37642;DHT22;23486;51.956;5.888;2023-02-27T01:30:43;0.10;99.90
37642;DHT22;23486;51.956;5.888;2023-02-27T01:33:09;0.00;99.90
37642;DHT22;23486;51.956;5.888;2023-02-27T01:35:35;0.00;99.90
37642;DHT22;23486;51.956;5.888;2023-02-27T01:38:01;-0.10;99.90
37642;DHT22;23486;51.956;5.888;2023-02-27T01:40:26;-0.20;99.90
37642;DHT22;23486;51.956;5.888;2023-02-27T01:42:52;-0.20;99.90
37642;DHT22;23486;51.956;5.888;2023-02-27T01:45:33;-0.20;99.90
37642;DHT22;23486;51.956;5.888;2023-02-27T01:48:01;-0.30;99.90
37642;DHT22;23486;51.956;5.888;2023-02-27T01:50:28;-0.20;99.90
37642;DHT22;23486;51.956;5.888;2023-02-27T01:52:57;-0.20;99.90
37642;DHT22;23486;51.956;5.888;2023-02-27T01:55:25;-0.20;99.90
37642;DHT22;23486;51.956;5.888;2023-02-27T01:57:52;-0.30;99.90
37642;DHT22;23486;51.956;5.888;2023-02-27T02:00:19;-0.30;99.90
37642;DHT22;23486;51.956;5.888;2023-02-27T02:03:31;-0.40;99.90
37642;DHT22;23486;51.956;5.888;2023-02-27T02:06:00;-0.40;99.90
37642;DHT22;23486;51.956;5.888;2023-02-27T02:08:29;-0.40;99.90
37642;DHT22;23486;51.956;5.888;2023-02-27T02:10:57;-0.50;99.90
37642;DHT22;23486;51.956;5.888;2023-02-27T02:13:23;-0.50;99.90
37642;DHT22;23486;51.956;5.888;2023-02-27T02:22:16;-0.60;99.90
37642;DHT22;23486;51.956;5.888;2023-02-27T02:55:09;-1.00;99.90
37642;DHT22;23486;51.956;5.888;2023-02-27T02:58:05;-1.00;99.90
37642;DHT22;23486;51.956;5.888;2023-02-27T03:00:36;-1.00;99.90
37642;DHT22;23486;51.956;5.888;2023-02-27T03:03:25;-1.00;99.90
37642;DHT22;23486;51.956;5.888;2023-02-27T03:05:57;-1.00;99.90
37642;DHT22;23486;51.956;5.888;2023-02-27T03:08:28;-1.00;99.90
37642;DHT22;23486;51.956;5.888;2023-02-27T03:11:01;-1.00;99.90
37642;DHT22;23486;51.956;5.888;2023-02-27T03:18:57;-1.10;99.90
37642;DHT22;23486;51.956;5.888;2023-02-27T03:21:29;-1.20;99.90
37642;DHT22;23486;51.956;5.888;2023-02-27T03:23:56;-1.20;99.90
37642;DHT22;23486;51.956;5.888;2023-02-27T03:26:30;-1.20;99.90
37642;DHT22;23486;51.956;5.888;2023-02-27T03:29:05;-1.20;99.90
37642;DHT22;23486;51.956;5.888;2023-02-27T03:31:48;-1.30;99.90
37642;DHT22;23486;51.956;5.888;2023-02-27T03:34:29;-1.30;99.90
37642;DHT22;23486;51.956;5.888;2023-02-27T03:40:00;-1.40;99.90
37642;DHT22;23486;51.956;5.888;2023-02-27T03:42:45;-1.30;99.90
37642;DHT22;23486;51.956;5.888;2023-02-27T03:47:57;-1.30;99.90
37642;DHT22;23486;51.956;5.888;2023-02-27T03:50:23;-1.30;99.90
37642;DHT22;23486;51.956;5.888;2023-02-27T03:52:49;-1.20;99.90
37642;DHT22;23486;51.956;5.888;2023-02-27T03:55:20;-1.20;99.90
37642;DHT22;23486;51.956;5.888;2023-02-27T03:57:50;-1.20;99.90
37642;DHT22;23486;51.956;5.888;2023-02-27T04:00:19;-1.20;99.90
37642;DHT22;23486;51.956;5.888;2023-02-27T04:02:46;-1.20;99.90
37642;DHT22;23486;51.956;5.888;2023-02-27T04:05:15;-1.30;99.90
37642;DHT22;23486;51.956;5.888;2023-02-27T04:27:18;-1.50;99.90
37642;DHT22;23486;51.956;5.888;2023-02-27T04:32:34;-1.50;99.90
37642;DHT22;23486;51.956;5.888;2023-02-27T04:35:25;-1.50;99.90
37642;DHT22;23486;51.956;5.888;2023-02-27T04:40:24;-1.60;99.90
37642;DHT22;23486;51.956;5.888;2023-02-27T04:42:51;-1.60;99.90
37642;DHT22;23486;51.956;5.888;2023-02-27T04:45:23;-1.60;99.90
37642;DHT22;23486;51.956;5.888;2023-02-27T04:48:04;-1.60;99.90
37642;DHT22;23486;51.956;5.888;2023-02-27T04:50:44;-1.60;99.90
37642;DHT22;23486;51.956;5.888;2023-02-27T04:53:24;-1.70;99.90
37642;DHT22;23486;51.956;5.888;2023-02-27T04:55:58;-1.70;99.90
37642;DHT22;23486;51.956;5.888;2023-02-27T04:58:32;-1.70;99.90
37642;DHT22;23486;51.956;5.888;2023-02-27T05:01:02;-1.60;99.90
37642;DHT22;23486;51.956;5.888;2023-02-27T05:03:42;-1.70;99.90
37642;DHT22;23486;51.956;5.888;2023-02-27T05:06:10;-1.70;99.90
37642;DHT22;23486;51.956;5.888;2023-02-27T05:11:58;-1.70;99.90
37642;DHT22;23486;51.956;5.888;2023-02-27T05:17:13;-1.70;99.90
37642;DHT22;23486;51.956;5.888;2023-02-27T05:19:41;-1.70;99.90
37642;DHT22;23486;51.956;5.888;2023-02-27T05:22:46;-1.70;99.90
37642;DHT22;23486;51.956;5.888;2023-02-27T05:25:40;-1.70;99.90
37642;DHT22;23486;51.956;5.888;2023-02-27T05:28:36;-1.70;99.90
37642;DHT22;23486;51.956;5.888;2023-02-27T05:34:03;-1.70;99.90
37642;DHT22;23486;51.956;5.888;2023-02-27T05:36:34;-1.70;99.90
37642;DHT22;23486;51.956;5.888;2023-02-27T05:39:06;-1.70;99.90
37642;DHT22;23486;51.956;5.888;2023-02-27T05:42:20;-1.80;99.90
37642;DHT22;23486;51.956;5.888;2023-02-27T05:44:48;-1.80;99.90
37642;DHT22;23486;51.956;5.888;2023-02-27T05:47:21;-1.70;99.90
37642;DHT22;23486;51.956;5.888;2023-02-27T05:49:56;-1.70;99.90
37642;DHT22;23486;51.956;5.888;2023-02-27T05:52:25;-1.80;99.90
37642;DHT22;23486;51.956;5.888;2023-02-27T05:55:05;-1.70;99.90
37642;DHT22;23486;51.956;5.888;2023-02-27T05:57:41;-1.60;99.90
37642;DHT22;23486;51.956;5.888;2023-02-27T06:02:36;-1.40;99.90
37642;DHT22;23486;51.956;5.888;2023-02-27T06:05:02;-1.30;99.90
37642;DHT22;23486;51.956;5.888;2023-02-27T06:07:30;-1.30;99.90
37642;DHT22;23486;51.956;5.888;2023-02-27T06:09:57;-1.30;99.90
37642;DHT22;23486;51.956;5.888;2023-02-27T06:12:23;-1.30;99.90
37642;DHT22;23486;51.956;5.888;2023-02-27T06:14:48;-1.20;99.90
37642;DHT22;23486;51.956;5.888;2023-02-27T06:17:16;-1.20;99.90
37642;DHT22;23486;51.956;5.888;2023-02-27T06:19:41;-1.20;99.90
37642;DHT22;23486;51.956;5.888;2023-02-27T06:22:08;-1.20;99.90
37642;DHT22;23486;51.956;5.888;2023-02-27T06:24:34;-1.10;99.90
37642;DHT22;23486;51.956;5.888;2023-02-27T06:27:00;-1.00;99.90
37642;DHT22;23486;51.956;5.888;2023-02-27T06:29:25;-1.00;99.90
37642;DHT22;23486;51.956;5.888;2023-02-27T06:31:51;-0.90;99.90
37642;DHT22;23486;51.956;5.888;2023-02-27T06:34:16;-0.80;99.90
37642;DHT22;23486;51.956;5.888;2023-02-27T06:36:44;-0.80;99.90
37642;DHT22;23486;51.956;5.888;2023-02-27T06:39:10;-0.70;99.90
37642;DHT22;23486;51.956;5.888;2023-02-27T06:41:36;-0.70;99.90
37642;DHT22;23486;51.956;5.888;2023-02-27T06:44:02;-0.70;99.90
37642;DHT22;23486;51.956;5.888;2023-02-27T06:46:27;-0.70;99.90
37642;DHT22;23486;51.956;5.888;2023-02-27T06:48:56;-0.70;99.90
37642;DHT22;23486;51.956;5.888;2023-02-27T06:51:21;-0.70;99.90
37642;DHT22;23486;51.956;5.888;2023-02-27T06:53:47;-0.70;99.90
37642;DHT22;23486;51.956;5.888;2023-02-27T06:56:12;-0.60;99.90
37642;DHT22;23486;51.956;5.888;2023-02-27T06:58:41;-0.70;99.90
37642;DHT22;23486;51.956;5.888;2023-02-27T07:01:06;-0.60;99.90
37642;DHT22;23486;51.956;5.888;2023-02-27T07:03:32;-0.50;99.90
37642;DHT22;23486;51.956;5.888;2023-02-27T07:05:57;-0.50;99.90
37642;DHT22;23486;51.956;5.888;2023-02-27T07:08:23;-0.50;99.90
37642;DHT22;23486;51.956;5.888;2023-02-27T07:10:49;-0.40;99.90
37642;DHT22;23486;51.956;5.888;2023-02-27T07:13:16;-0.30;99.90
37642;DHT22;23486;51.956;5.888;2023-02-27T07:15:42;-0.20;99.90
37642;DHT22;23486;51.956;5.888;2023-02-27T07:18:09;-0.20;99.90
37642;DHT22;23486;51.956;5.888;2023-02-27T07:20:35;-0.20;99.90
37642;DHT22;23486;51.956;5.888;2023-02-27T07:23:01;-0.10;99.90
37642;DHT22;23486;51.956;5.888;2023-02-27T07:25:27;0.00;99.90
37642;DHT22;23486;51.956;5.888;2023-02-27T07:27:53;0.00;99.90
37642;DHT22;23486;51.956;5.888;2023-02-27T07:30:19;0.00;99.90
37642;DHT22;23486;51.956;5.888;2023-02-27T07:32:45;0.10;99.90
37642;DHT22;23486;51.956;5.888;2023-02-27T07:35:11;0.20;99.90
37642;DHT22;23486;51.956;5.888;2023-02-27T07:37:37;0.20;99.90
37642;DHT22;23486;51.956;5.888;2023-02-27T07:40:03;0.20;99.90
37642;DHT22;23486;51.956;5.888;2023-02-27T07:42:29;0.20;99.90
37642;DHT22;23486;51.956;5.888;2023-02-27T07:44:55;0.20;99.90
37642;DHT22;23486;51.956;5.888;2023-02-27T07:47:24;0.20;99.90
37642;DHT22;23486;51.956;5.888;2023-02-27T07:49:52;0.30;99.90
37642;DHT22;23486;51.956;5.888;2023-02-27T07:52:18;0.30;99.90
37642;DHT22;23486;51.956;5.888;2023-02-27T07:54:43;0.40;99.90
37642;DHT22;23486;51.956;5.888;2023-02-27T07:57:09;0.40;99.90
37642;DHT22;23486;51.956;5.888;2023-02-27T07:59:34;0.40;99.90
37642;DHT22;23486;51.956;5.888;2023-02-27T08:02:00;0.50;99.90
37642;DHT22;23486;51.956;5.888;2023-02-27T08:04:25;0.50;99.90
37642;DHT22;23486;51.956;5.888;2023-02-27T08:06:51;0.50;99.90
37642;DHT22;23486;51.956;5.888;2023-02-27T08:09:17;0.60;99.90
37642;DHT22;23486;51.956;5.888;2023-02-27T08:11:42;0.50;99.90
37642;DHT22;23486;51.956;5.888;2023-02-27T08:14:08;0.50;99.90
37642;DHT22;23486;51.956;5.888;2023-02-27T08:16:33;0.60;99.90
37642;DHT22;23486;51.956;5.888;2023-02-27T08:19:00;0.60;99.90
37642;DHT22;23486;51.956;5.888;2023-02-27T08:21:25;0.70;99.90
37642;DHT22;23486;51.956;5.888;2023-02-27T08:23:51;0.80;99.90
37642;DHT22;23486;51.956;5.888;2023-02-27T08:26:17;0.90;99.90
37642;DHT22;23486;51.956;5.888;2023-02-27T08:28:42;0.90;99.90
37642;DHT22;23486;51.956;5.888;2023-02-27T08:31:08;1.00;99.90
37642;DHT22;23486;51.956;5.888;2023-02-27T08:33:34;1.10;99.90
37642;DHT22;23486;51.956;5.888;2023-02-27T08:36:00;1.20;99.90
37642;DHT22;23486;51.956;5.888;2023-02-27T08:38:25;1.30;99.90
37642;DHT22;23486;51.956;5.888;2023-02-27T08:40:51;1.30;99.90
37642;DHT22;23486;51.956;5.888;2023-02-27T08:43:22;1.40;99.90
37642;DHT22;23486;51.956;5.888;2023-02-27T08:45:48;1.50;99.90
37642;DHT22;23486;51.956;5.888;2023-02-27T08:48:15;1.50;99.90
37642;DHT22;23486;51.956;5.888;2023-02-27T08:50:42;1.60;99.90
37642;DHT22;23486;51.956;5.888;2023-02-27T08:53:08;1.70;99.90
37642;DHT22;23486;51.956;5.888;2023-02-27T08:55:34;1.80;99.90
37642;DHT22;23486;51.956;5.888;2023-02-27T08:57:59;1.90;99.90
37642;DHT22;23486;51.956;5.888;2023-02-27T09:00:25;2.00;99.90
37642;DHT22;23486;51.956;5.888;2023-02-27T09:02:52;2.00;99.90
37642;DHT22;23486;51.956;5.888;2023-02-27T09:05:18;2.10;99.90
37642;DHT22;23486;51.956;5.888;2023-02-27T09:07:44;2.10;99.90
37642;DHT22;23486;51.956;5.888;2023-02-27T09:10:10;2.10;99.90
37642;DHT22;23486;51.956;5.888;2023-02-27T09:12:36;2.20;99.90
37642;DHT22;23486;51.956;5.888;2023-02-27T09:15:03;2.20;99.90
37642;DHT22;23486;51.956;5.888;2023-02-27T09:17:32;2.30;99.90
37642;DHT22;23486;51.956;5.888;2023-02-27T09:19:58;2.40;99.90
37642;DHT22;23486;51.956;5.888;2023-02-27T09:22:24;2.50;99.90
37642;DHT22;23486;51.956;5.888;2023-02-27T09:24:49;2.50;99.90
37642;DHT22;23486;51.956;5.888;2023-02-27T09:27:15;2.50;99.90
37642;DHT22;23486;51.956;5.888;2023-02-27T09:29:44;2.60;99.90
37642;DHT22;23486;51.956;5.888;2023-02-27T09:32:09;2.60;99.90
37642;DHT22;23486;51.956;5.888;2023-02-27T09:34:35;2.60;99.90
37642;DHT22;23486;51.956;5.888;2023-02-27T09:39:35;2.80;99.90
37642;DHT22;23486;51.956;5.888;2023-02-27T09:42:27;2.80;99.90
37642;DHT22;23486;51.956;5.888;2023-02-27T09:45:09;2.90;99.90
37642;DHT22;23486;51.956;5.888;2023-02-27T09:47:40;3.00;99.90
37642;DHT22;23486;51.956;5.888;2023-02-27T09:50:38;3.00;99.90
37642;DHT22;23486;51.956;5.888;2023-02-27T09:53:10;3.00;99.90
37642;DHT22;23486;51.956;5.888;2023-02-27T10:02:32;3.20;99.90
37642;DHT22;23486;51.956;5.888;2023-02-27T10:10:37;3.50;99.90
37642;DHT22;23486;51.956;5.888;2023-02-27T10:16:12;3.60;99.90
37642;DHT22;23486;51.956;5.888;2023-02-27T10:18:59;3.70;99.90
37642;DHT22;23486;51.956;5.888;2023-02-27T10:21:43;3.70;99.90
37642;DHT22;23486;51.956;5.888;2023-02-27T10:26:48;3.90;99.90
37642;DHT22;23486;51.956;5.888;2023-02-27T10:29:35;4.00;99.90
37642;DHT22;23486;51.956;5.888;2023-02-27T10:35:08;4.20;99.90
37642;DHT22;23486;51.956;5.888;2023-02-27T10:37:36;4.20;99.90
37642;DHT22;23486;51.956;5.888;2023-02-27T10:40:04;4.30;99.90
37642;DHT22;23486;51.956;5.888;2023-02-27T10:42:36;4.40;99.90
37642;DHT22;23486;51.956;5.888;2023-02-27T10:45:03;4.50;99.90
37642;DHT22;23486;51.956;5.888;2023-02-27T10:47:29;4.50;99.90
37642;DHT22;23486;51.956;5.888;2023-02-27T10:49:55;4.60;99.90
37642;DHT22;23486;51.956;5.888;2023-02-27T10:52:24;4.70;99.90
37642;DHT22;23486;51.956;5.888;2023-02-27T10:54:49;4.80;99.80
37642;DHT22;23486;51.956;5.888;2023-02-27T10:57:28;5.00;99.90
37642;DHT22;23486;51.956;5.888;2023-02-27T11:00:06;5.10;99.90
37642;DHT22;23486;51.956;5.888;2023-02-27T11:02:42;5.20;99.90
37642;DHT22;23486;51.956;5.888;2023-02-27T11:05:37;5.20;99.90
37642;DHT22;23486;51.956;5.888;2023-02-27T11:08:34;5.20;99.80
37642;DHT22;23486;51.956;5.888;2023-02-27T11:11:10;5.30;99.40
37642;DHT22;23486;51.956;5.888;2023-02-27T11:13:41;5.40;97.70
37642;DHT22;23486;51.956;5.888;2023-02-27T11:16:16;5.40;97.10
37642;DHT22;23486;51.956;5.888;2023-02-27T11:18:43;5.40;95.50
37642;DHT22;23486;51.956;5.888;2023-02-27T11:23:36;5.30;94.00
37642;DHT22;23486;51.956;5.888;2023-02-27T11:26:30;5.20;93.90
37642;DHT22;23486;51.956;5.888;2023-02-27T11:31:33;5.00;94.60
37642;DHT22;23486;51.956;5.888;2023-02-27T11:33:59;5.00;93.50
37642;DHT22;23486;51.956;5.888;2023-02-27T11:39:04;4.80;94.70
37642;DHT22;23486;51.956;5.888;2023-02-27T11:41:32;4.90;94.30
37642;DHT22;23486;51.956;5.888;2023-02-27T11:44:02;4.90;93.70
37642;DHT22;23486;51.956;5.888;2023-02-27T11:46:30;5.00;93.40
37642;DHT22;23486;51.956;5.888;2023-02-27T11:52:19;5.20;93.20
37642;DHT22;23486;51.956;5.888;2023-02-27T11:54:54;5.40;93.20
37642;DHT22;23486;51.956;5.888;2023-02-27T11:57:35;5.60;93.30
37642;DHT22;23486;51.956;5.888;2023-02-27T12:02:57;5.70;93.30
37642;DHT22;23486;51.956;5.888;2023-02-27T12:05:28;5.90;92.40
37642;DHT22;23486;51.956;5.888;2023-02-27T12:08:27;5.90;93.00
37642;DHT22;23486;51.956;5.888;2023-02-27T12:10:56;6.00;93.40
37642;DHT22;23486;51.956;5.888;2023-02-27T12:13:47;6.10;93.90
37642;DHT22;23486;51.956;5.888;2023-02-27T12:16:30;6.40;94.00
37642;DHT22;23486;51.956;5.888;2023-02-27T12:19:09;6.60;93.70
37642;DHT22;23486;51.956;5.888;2023-02-27T12:21:40;6.60;93.40
37642;DHT22;23486;51.956;5.888;2023-02-27T12:26:44;6.90;93.30
37642;DHT22;23486;51.956;5.888;2023-02-27T12:32:14;7.00;92.20
37642;DHT22;23486;51.956;5.888;2023-02-27T12:34:48;7.00;92.00
37642;DHT22;23486;51.956;5.888;2023-02-27T12:37:24;7.00;92.30
37642;DHT22;23486;51.956;5.888;2023-02-27T12:39:53;7.00;91.40
37642;DHT22;23486;51.956;5.888;2023-02-27T12:48:06;6.70;91.20
37642;DHT22;23486;51.956;5.888;2023-02-27T12:53:54;6.90;91.80
37642;DHT22;23486;51.956;5.888;2023-02-27T12:56:36;7.20;91.70
37642;DHT22;23486;51.956;5.888;2023-02-27T13:02:01;7.50;90.50
37642;DHT22;23486;51.956;5.888;2023-02-27T13:07:03;7.50;91.00
37642;DHT22;23486;51.956;5.888;2023-02-27T13:09:40;7.40;90.70
37642;DHT22;23486;51.956;5.888;2023-02-27T13:17:24;7.10;91.50
37642;DHT22;23486;51.956;5.888;2023-02-27T13:20:00;7.00;90.80
37642;DHT22;23486;51.956;5.888;2023-02-27T13:22:39;6.90;91.40
37642;DHT22;23486;51.956;5.888;2023-02-27T13:25:13;7.00;91.90
37642;DHT22;23486;51.956;5.888;2023-02-27T13:27:48;7.20;91.90
37642;DHT22;23486;51.956;5.888;2023-02-27T13:38:32;7.40;90.70
37642;DHT22;23486;51.956;5.888;2023-02-27T13:41:33;7.50;91.10
37642;DHT22;23486;51.956;5.888;2023-02-27T13:46:45;7.50;89.60
37642;DHT22;23486;51.956;5.888;2023-02-27T13:49:22;7.40;90.20
37642;DHT22;23486;51.956;5.888;2023-02-27T13:52:00;7.50;89.50
37642;DHT22;23486;51.956;5.888;2023-02-27T13:54:38;7.50;89.90
37642;DHT22;23486;51.956;5.888;2023-02-27T13:57:14;7.50;89.60
37642;DHT22;23486;51.956;5.888;2023-02-27T13:59:50;7.50;89.20
37642;DHT22;23486;51.956;5.888;2023-02-27T14:02:40;7.50;89.10
37642;DHT22;23486;51.956;5.888;2023-02-27T14:05:09;7.50;89.60
37642;DHT22;23486;51.956;5.888;2023-02-27T14:08:31;7.40;89.10
37642;DHT22;23486;51.956;5.888;2023-02-27T14:11:29;7.20;89.00
37642;DHT22;23486;51.956;5.888;2023-02-27T14:14:06;7.20;89.40
37642;DHT22;23486;51.956;5.888;2023-02-27T14:24:35;6.80;90.00
37642;DHT22;23486;51.956;5.888;2023-02-27T14:27:26;6.80;90.30
37642;DHT22;23486;51.956;5.888;2023-02-27T14:29:55;6.90;90.50
37642;DHT22;23486;51.956;5.888;2023-02-27T14:32:31;7.00;90.30
37642;DHT22;23486;51.956;5.888;2023-02-27T14:34:58;7.10;90.40
37642;DHT22;23486;51.956;5.888;2023-02-27T14:37:25;7.20;90.30
37642;DHT22;23486;51.956;5.888;2023-02-27T14:39:53;7.10;90.40
37642;DHT22;23486;51.956;5.888;2023-02-27T14:45:21;6.80;88.10
37642;DHT22;23486;51.956;5.888;2023-02-27T14:47:49;6.70;88.70
37642;DHT22;23486;51.956;5.888;2023-02-27T14:50:26;6.60;89.10
37642;DHT22;23486;51.956;5.888;2023-02-27T14:52:53;6.60;89.70
37642;DHT22;23486;51.956;5.888;2023-02-27T14:58:14;6.90;89.80
37642;DHT22;23486;51.956;5.888;2023-02-27T15:00:47;7.00;89.40
37642;DHT22;23486;51.956;5.888;2023-02-27T15:03:19;7.10;89.70
37642;DHT22;23486;51.956;5.888;2023-02-27T15:05:50;7.00;87.60
37642;DHT22;23486;51.956;5.888;2023-02-27T15:08:24;6.90;87.00
37642;DHT22;23486;51.956;5.888;2023-02-27T15:10:52;6.80;86.10
37642;DHT22;23486;51.956;5.888;2023-02-27T15:13:38;6.70;86.40
37642;DHT22;23486;51.956;5.888;2023-02-27T15:18:57;6.70;87.50
37642;DHT22;23486;51.956;5.888;2023-02-27T15:21:26;6.80;87.50
37642;DHT22;23486;51.956;5.888;2023-02-27T15:23:57;6.90;86.80
37642;DHT22;23486;51.956;5.888;2023-02-27T15:26:23;6.90;87.80
37642;DHT22;23486;51.956;5.888;2023-02-27T15:28:50;7.00;88.50
37642;DHT22;23486;51.956;5.888;2023-02-27T15:31:21;7.10;87.80
37642;DHT22;23486;51.956;5.888;2023-02-27T15:33:49;7.20;88.20
37642;DHT22;23486;51.956;5.888;2023-02-27T15:36:21;7.20;88.40
37642;DHT22;23486;51.956;5.888;2023-02-27T15:41:30;7.20;85.60
37642;DHT22;23486;51.956;5.888;2023-02-27T15:43:56;7.20;85.60
37642;DHT22;23486;51.956;5.888;2023-02-27T15:46:22;7.10;85.20
37642;DHT22;23486;51.956;5.888;2023-02-27T15:48:49;7.10;84.50
37642;DHT22;23486;51.956;5.888;2023-02-27T15:51:16;7.10;83.60
37642;DHT22;23486;51.956;5.888;2023-02-27T15:53:47;7.10;83.80
37642;DHT22;23486;51.956;5.888;2023-02-27T15:56:14;7.10;84.20
37642;DHT22;23486;51.956;5.888;2023-02-27T15:58:49;7.10;84.70
37642;DHT22;23486;51.956;5.888;2023-02-27T16:01:21;7.10;83.80
37642;DHT22;23486;51.956;5.888;2023-02-27T16:03:49;7.10;84.30
37642;DHT22;23486;51.956;5.888;2023-02-27T16:06:19;7.20;85.90
37642;DHT22;23486;51.956;5.888;2023-02-27T16:08:50;7.20;86.00
37642;DHT22;23486;51.956;5.888;2023-02-27T16:11:18;7.20;85.60
37642;DHT22;23486;51.956;5.888;2023-02-27T16:13:43;7.20;86.10
37642;DHT22;23486;51.956;5.888;2023-02-27T16:16:53;7.20;85.80
37642;DHT22;23486;51.956;5.888;2023-02-27T16:19:30;7.00;85.20
37642;DHT22;23486;51.956;5.888;2023-02-27T16:22:11;6.90;85.30
37642;DHT22;23486;51.956;5.888;2023-02-27T16:24:37;6.70;85.10
37642;DHT22;23486;51.956;5.888;2023-02-27T16:27:03;6.60;84.90
37642;DHT22;23486;51.956;5.888;2023-02-27T16:29:38;6.40;85.00
37642;DHT22;23486;51.956;5.888;2023-02-27T16:32:13;6.30;85.30
37642;DHT22;23486;51.956;5.888;2023-02-27T16:34:43;6.20;85.80
37642;DHT22;23486;51.956;5.888;2023-02-27T16:37:22;6.10;86.30
37642;DHT22;23486;51.956;5.888;2023-02-27T16:39:49;6.00;86.30
37642;DHT22;23486;51.956;5.888;2023-02-27T16:42:16;6.00;86.80
37642;DHT22;23486;51.956;5.888;2023-02-27T16:44:42;5.90;87.10
37642;DHT22;23486;51.956;5.888;2023-02-27T16:47:08;5.80;87.50
37642;DHT22;23486;51.956;5.888;2023-02-27T16:49:34;5.70;87.90
37642;DHT22;23486;51.956;5.888;2023-02-27T16:51:59;5.70;88.20
37642;DHT22;23486;51.956;5.888;2023-02-27T16:54:30;5.70;88.60
37642;DHT22;23486;51.956;5.888;2023-02-27T16:56:55;5.60;88.80
37642;DHT22;23486;51.956;5.888;2023-02-27T17:01:51;5.50;89.20
37642;DHT22;23486;51.956;5.888;2023-02-27T17:04:16;5.50;89.50
37642;DHT22;23486;51.956;5.888;2023-02-27T17:06:42;5.40;89.70
37642;DHT22;23486;51.956;5.888;2023-02-27T17:09:10;5.40;90.10
37642;DHT22;23486;51.956;5.888;2023-02-27T17:11:36;5.30;90.10
37642;DHT22;23486;51.956;5.888;2023-02-27T17:14:02;5.20;90.30
37642;DHT22;23486;51.956;5.888;2023-02-27T17:16:27;5.20;90.40
37642;DHT22;23486;51.956;5.888;2023-02-27T17:18:53;5.10;90.60
37642;DHT22;23486;51.956;5.888;2023-02-27T17:21:19;5.10;90.80
37642;DHT22;23486;51.956;5.888;2023-02-27T17:23:45;5.00;90.90
37642;DHT22;23486;51.956;5.888;2023-02-27T17:26:12;5.00;91.00
37642;DHT22;23486;51.956;5.888;2023-02-27T17:28:38;4.90;91.20
37642;DHT22;23486;51.956;5.888;2023-02-27T17:31:07;4.90;91.30
37642;DHT22;23486;51.956;5.888;2023-02-27T17:33:33;4.90;91.40
37642;DHT22;23486;51.956;5.888;2023-02-27T17:36:06;4.80;91.50
37642;DHT22;23486;51.956;5.888;2023-02-27T17:38:32;4.80;91.70
37642;DHT22;23486;51.956;5.888;2023-02-27T17:40:58;4.70;91.90
37642;DHT22;23486;51.956;5.888;2023-02-27T17:43:27;4.70;92.00
37642;DHT22;23486;51.956;5.888;2023-02-27T17:45:52;4.60;92.10
37642;DHT22;23486;51.956;5.888;2023-02-27T17:48:18;4.50;92.30
37642;DHT22;23486;51.956;5.888;2023-02-27T17:50:44;4.50;92.40
37642;DHT22;23486;51.956;5.888;2023-02-27T17:53:10;4.40;92.60
37642;DHT22;23486;51.956;5.888;2023-02-27T17:55:38;4.30;92.80
37642;DHT22;23486;51.956;5.888;2023-02-27T17:58:04;4.30;92.90
37642;DHT22;23486;51.956;5.888;2023-02-27T18:00:29;4.30;93.00
37642;DHT22;23486;51.956;5.888;2023-02-27T18:02:55;4.20;93.10
37642;DHT22;23486;51.956;5.888;2023-02-27T18:05:20;4.20;93.20
37642;DHT22;23486;51.956;5.888;2023-02-27T18:07:46;4.10;93.30
37642;DHT22;23486;51.956;5.888;2023-02-27T18:10:12;4.00;93.40
37642;DHT22;23486;51.956;5.888;2023-02-27T18:12:38;4.00;93.50
37642;DHT22;23486;51.956;5.888;2023-02-27T18:15:05;4.00;93.70
37642;DHT22;23486;51.956;5.888;2023-02-27T18:17:31;4.00;93.80
37642;DHT22;23486;51.956;5.888;2023-02-27T18:19:56;3.80;93.80
37642;DHT22;23486;51.956;5.888;2023-02-27T18:22:23;3.80;94.00
37642;DHT22;23486;51.956;5.888;2023-02-27T18:24:52;3.80;94.20
37642;DHT22;23486;51.956;5.888;2023-02-27T18:27:18;3.70;94.30
37642;DHT22;23486;51.956;5.888;2023-02-27T18:29:44;3.60;94.40
37642;DHT22;23486;51.956;5.888;2023-02-27T18:32:10;3.60;94.60
37642;DHT22;23486;51.956;5.888;2023-02-27T18:34:38;3.50;94.70
37642;DHT22;23486;51.956;5.888;2023-02-27T18:37:04;3.50;94.80
37642;DHT22;23486;51.956;5.888;2023-02-27T18:39:30;3.40;95.00
37642;DHT22;23486;51.956;5.888;2023-02-27T18:41:56;3.40;95.30
37642;DHT22;23486;51.956;5.888;2023-02-27T18:44:23;3.30;95.40
37642;DHT22;23486;51.956;5.888;2023-02-27T18:46:48;3.40;95.70
37642;DHT22;23486;51.956;5.888;2023-02-27T18:49:14;3.40;95.60
37642;DHT22;23486;51.956;5.888;2023-02-27T18:51:40;3.40;95.70
37642;DHT22;23486;51.956;5.888;2023-02-27T18:54:06;3.40;95.70
37642;DHT22;23486;51.956;5.888;2023-02-27T18:56:34;3.40;95.70
37642;DHT22;23486;51.956;5.888;2023-02-27T18:59:00;3.40;95.90
37642;DHT22;23486;51.956;5.888;2023-02-27T19:01:35;3.40;96.00